sensor_id;sensor_type;location;lat;lon;timestamp;pressure;altitude;pressure_sealevel;temperature;humidity
21111;BME280;10713;51.912;4.494;2023-02-11T00:01:38;103426.13;;;8.30;100.00
21111;BME280;10713;51.912;4.494;2023-02-11T00:04:04;103426.13;;;8.31;100.00
21111;BME280;10713;51.912;4.494;2023-02-11T00:06:31;103423.53;;;8.33;100.00
21111;BME280;10713;51.912;4.494;2023-02-11T00:08:58;103413.88;;;8.33;100.00
21111;BME280;10713;51.912;4.494;2023-02-11T00:11:25;103411.34;;;8.40;100.00
21111;BME280;10713;51.912;4.494;2023-02-11T00:13:55;103406.97;;;8.42;100.00
21111;BME280;10713;51.912;4.494;2023-02-11T00:16:20;103413.03;;;8.36;100.00
21111;BME280;10713;51.912;4.494;2023-02-11T00:18:46;103407.69;;;8.31;100.00
21111;BME280;10713;51.912;4.494;2023-02-11T00:21:14;103409.44;;;8.31;100.00
21111;BME280;10713;51.912;4.494;2023-02-11T00:23:40;103411.19;;;8.32;100.00
21111;BME280;10713;51.912;4.494;2023-02-11T00:26:14;103401.63;;;8.35;100.00
21111;BME280;10713;51.912;4.494;2023-02-11T00:28:40;103400.72;;;8.33;100.00
21111;BME280;10713;51.912;4.494;2023-02-11T00:31:06;103405.09;;;8.33;100.00
21111;BME280;10713;51.912;4.494;2023-02-11T00:33:31;103416.50;;;8.35;100.00
21111;BME280;10713;51.912;4.494;2023-02-11T00:35:57;103413.09;;;8.39;100.00
21111;BME280;10713;51.912;4.494;2023-02-11T00:38:22;103415.75;;;8.42;100.00
21111;BME280;10713;51.912;4.494;2023-02-11T00:40:47;103405.25;;;8.45;100.00
21111;BME280;10713;51.912;4.494;2023-02-11T00:43:13;103393.84;;;8.46;100.00
21111;BME280;10713;51.912;4.494;2023-02-11T00:45:38;103398.22;;;8.44;100.00
21111;BME280;10713;51.912;4.494;2023-02-11T00:48:03;103394.72;;;8.45;100.00
21111;BME280;10713;51.912;4.494;2023-02-11T00:50:29;103384.19;;;8.45;100.00
21111;BME280;10713;51.912;4.494;2023-02-11T00:52:54;103384.19;;;8.47;100.00
21111;BME280;10713;51.912;4.494;2023-02-11T00:55:19;103379.84;;;8.49;100.00
21111;BME280;10713;51.912;4.494;2023-02-11T00:57:45;103381.63;;;8.50;100.00
21111;BME280;10713;51.912;4.494;2023-02-11T01:00:12;103393.91;;;8.52;100.00
21111;BME280;10713;51.912;4.494;2023-02-11T01:02:38;103393.03;;;8.50;100.00
21111;BME280;10713;51.912;4.494;2023-02-11T01:05:03;103384.19;;;8.47;100.00
21111;BME280;10713;51.912;4.494;2023-02-11T01:07:29;103383.28;;;8.43;100.00
21111;BME280;10713;51.912;4.494;2023-02-11T01:09:55;103391.16;;;8.40;100.00
21111;BME280;10713;51.912;4.494;2023-02-11T01:12:20;103385.81;;;8.37;100.00
21111;BME280;10713;51.912;4.494;2023-02-11T01:14:46;103395.47;;;8.38;100.00
21111;BME280;10713;51.912;4.494;2023-02-11T01:17:11;103397.28;;;8.39;100.00
21111;BME280;10713;51.912;4.494;2023-02-11T01:19:37;103399.00;;;8.35;100.00
21111;BME280;10713;51.912;4.494;2023-02-11T01:22:03;103391.91;;;8.31;100.00
21111;BME280;10713;51.912;4.494;2023-02-11T01:24:28;103392.81;;;8.33;100.00
21111;BME280;10713;51.912;4.494;2023-02-11T01:26:54;103384.00;;;8.31;100.00
21111;BME280;10713;51.912;4.494;2023-02-11T01:29:19;103379.63;;;8.32;100.00
21111;BME280;10713;51.912;4.494;2023-02-11T01:31:45;103377.84;;;8.29;100.00
21111;BME280;10713;51.912;4.494;2023-02-11T01:34:10;103395.38;;;8.29;100.00
21111;BME280;10713;51.912;4.494;2023-02-11T01:36:36;103389.28;;;8.30;100.00
21111;BME280;10713;51.912;4.494;2023-02-11T01:39:02;103388.41;;;8.32;100.00
21111;BME280;10713;51.912;4.494;2023-02-11T01:41:27;103381.38;;;8.31;100.00
21111;BME280;10713;51.912;4.494;2023-02-11T01:43:53;103365.50;;;8.24;100.00
21111;BME280;10713;51.912;4.494;2023-02-11T01:51:32;103373.28;;;8.13;100.00
21111;BME280;10713;51.912;4.494;2023-02-11T01:53:59;103371.44;;;8.06;100.00
21111;BME280;10713;51.912;4.494;2023-02-11T01:56:46;103381.03;;;8.01;100.00
21111;BME280;10713;51.912;4.494;2023-02-11T01:59:38;103381.00;;;7.98;100.00
21111;BME280;10713;51.912;4.494;2023-02-11T02:02:08;103367.78;;;7.92;100.00
21111;BME280;10713;51.912;4.494;2023-02-11T02:04:43;103373.91;;;7.90;100.00
21111;BME280;10713;51.912;4.494;2023-02-11T02:07:15;103370.38;;;7.87;100.00
21111;BME280;10713;51.912;4.494;2023-02-11T02:09:47;103355.38;;;7.81;100.00
21111;BME280;10713;51.912;4.494;2023-02-11T02:12:13;103357.03;;;7.75;100.00
21111;BME280;10713;51.912;4.494;2023-02-11T02:14:39;103371.03;;;7.71;100.00
21111;BME280;10713;51.912;4.494;2023-02-11T02:17:06;103370.97;;;7.69;100.00
21111;BME280;10713;51.912;4.494;2023-02-11T02:22:14;103368.31;;;7.66;100.00
21111;BME280;10713;51.912;4.494;2023-02-11T02:27:34;103370.91;;;7.63;100.00
21111;BME280;10713;51.912;4.494;2023-02-11T02:38:50;103376.00;;;7.51;100.00
21111;BME280;10713;51.912;4.494;2023-02-11T02:41:21;103377.72;;;7.47;100.00
21111;BME280;10713;51.912;4.494;2023-02-11T02:43:49;103394.31;;;7.46;100.00
21111;BME280;10713;51.912;4.494;2023-02-11T02:48:40;103402.13;;;7.38;100.00
21111;BME280;10713;51.912;4.494;2023-02-11T02:51:22;103402.13;;;7.38;100.00
21111;BME280;10713;51.912;4.494;2023-02-11T02:56:49;103393.28;;;7.35;100.00
21111;BME280;10713;51.912;4.494;2023-02-11T03:02:25;103387.19;;;7.36;100.00
21111;BME280;10713;51.912;4.494;2023-02-11T03:10:28;103375.63;;;7.25;100.00
21111;BME280;10713;51.912;4.494;2023-02-11T03:12:55;103377.34;;;7.22;100.00
21111;BME280;10713;51.912;4.494;2023-02-11T03:15:22;103372.91;;;7.18;100.00
21111;BME280;10713;51.912;4.494;2023-02-11T03:17:51;103377.25;;;7.16;100.00
21111;BME280;10713;51.912;4.494;2023-02-11T03:20:19;103375.44;;;7.12;100.00
21111;BME280;10713;51.912;4.494;2023-02-11T03:22:53;103374.53;;;7.10;100.00
21111;BME280;10713;51.912;4.494;2023-02-11T03:25:21;103373.56;;;7.05;100.00
21111;BME280;10713;51.912;4.494;2023-02-11T03:28:05;103370.06;;;7.05;100.00
21111;BME280;10713;51.912;4.494;2023-02-11T03:30:46;103371.84;;;7.06;100.00
21111;BME280;10713;51.912;4.494;2023-02-11T03:33:21;103380.63;;;7.09;100.00
21111;BME280;10713;51.912;4.494;2023-02-11T03:36:02;103374.56;;;7.12;100.00
21111;BME280;10713;51.912;4.494;2023-02-11T03:38:32;103383.25;;;7.09;100.00
21111;BME280;10713;51.912;4.494;2023-02-11T03:41:00;103367.50;;;7.09;100.00
21111;BME280;10713;51.912;4.494;2023-02-11T03:43:37;103364.00;;;7.07;100.00
21111;BME280;10713;51.912;4.494;2023-02-11T03:46:05;103361.38;;;7.07;100.00
21111;BME280;10713;51.912;4.494;2023-02-11T03:48:36;103357.88;;;7.08;100.00
21111;BME280;10713;51.912;4.494;2023-02-11T03:51:05;103353.53;;;7.10;100.00
21111;BME280;10713;51.912;4.494;2023-02-11T03:53:31;103356.16;;;7.10;100.00
21111;BME280;10713;51.912;4.494;2023-02-11T03:55:59;103355.31;;;7.13;100.00
21111;BME280;10713;51.912;4.494;2023-02-11T03:58:26;103358.75;;;7.09;100.00
21111;BME280;10713;51.912;4.494;2023-02-11T04:00:52;103352.66;;;7.10;100.00
21111;BME280;10713;51.912;4.494;2023-02-11T04:03:17;103351.78;;;7.12;100.00
21111;BME280;10713;51.912;4.494;2023-02-11T04:05:43;103359.78;;;7.18;100.00
21111;BME280;10713;51.912;4.494;2023-02-11T04:08:08;103353.63;;;7.18;100.00
21111;BME280;10713;51.912;4.494;2023-02-11T04:10:34;103359.75;;;7.15;100.00
21111;BME280;10713;51.912;4.494;2023-02-11T04:12:59;103352.69;;;7.13;100.00
21111;BME280;10713;51.912;4.494;2023-02-11T04:15:25;103354.75;;;7.34;100.00
21111;BME280;10713;51.912;4.494;2023-02-11T04:17:50;103363.22;;;7.14;100.00
21111;BME280;10713;51.912;4.494;2023-02-11T04:20:16;103364.03;;;7.12;100.00
21111;BME280;10713;51.912;4.494;2023-02-11T04:22:41;103371.91;;;7.10;100.00
21111;BME280;10713;51.912;4.494;2023-02-11T04:25:07;103363.25;;;7.16;100.00
21111;BME280;10713;51.912;4.494;2023-02-11T04:27:33;103360.66;;;7.19;100.00
21111;BME280;10713;51.912;4.494;2023-02-11T04:29:59;103365.03;;;7.18;100.00
21111;BME280;10713;51.912;4.494;2023-02-11T04:32:24;103366.84;;;7.22;100.00
21111;BME280;10713;51.912;4.494;2023-02-11T04:34:49;103365.13;;;7.26;100.00
21111;BME280;10713;51.912;4.494;2023-02-11T04:37:15;103364.25;;;7.26;100.00
21111;BME280;10713;51.912;4.494;2023-02-11T04:39:40;103368.69;;;7.28;100.00
21111;BME280;10713;51.912;4.494;2023-02-11T04:42:06;103366.09;;;7.30;100.00
21111;BME280;10713;51.912;4.494;2023-02-11T04:44:31;103360.91;;;7.36;100.00
21111;BME280;10713;51.912;4.494;2023-02-11T04:46:57;103372.34;;;7.41;100.00
21111;BME280;10713;51.912;4.494;2023-02-11T04:49:22;103372.44;;;7.44;100.00
21111;BME280;10713;51.912;4.494;2023-02-11T04:51:47;103361.00;;;7.43;100.00
21111;BME280;10713;51.912;4.494;2023-02-11T04:54:13;103363.66;;;7.45;100.00
21111;BME280;10713;51.912;4.494;2023-02-11T04:56:38;103368.13;;;7.51;100.00
21111;BME280;10713;51.912;4.494;2023-02-11T04:59:04;103362.91;;;7.54;100.00
21111;BME280;10713;51.912;4.494;2023-02-11T05:01:30;103362.94;;;7.57;100.00
21111;BME280;10713;51.912;4.494;2023-02-11T05:03:56;103355.91;;;7.54;100.00
21111;BME280;10713;51.912;4.494;2023-02-11T05:06:22;103353.28;;;7.53;100.00
21111;BME280;10713;51.912;4.494;2023-02-11T05:08:47;103355.03;;;7.54;100.00
21111;BME280;10713;51.912;4.494;2023-02-11T05:11:18;103342.78;;;7.57;100.00
21111;BME280;10713;51.912;4.494;2023-02-11T05:13:44;103340.25;;;7.63;100.00
21111;BME280;10713;51.912;4.494;2023-02-11T05:16:10;103342.91;;;7.65;100.00
21111;BME280;10713;51.912;4.494;2023-02-11T05:18:39;103351.72;;;7.68;100.00
21111;BME280;10713;51.912;4.494;2023-02-11T05:21:09;103358.78;;;7.73;100.00
21111;BME280;10713;51.912;4.494;2023-02-11T05:23:35;103364.88;;;7.72;100.00
21111;BME280;10713;51.912;4.494;2023-02-11T05:26:01;103361.41;;;7.74;100.00
21111;BME280;10713;51.912;4.494;2023-02-11T05:28:27;103361.41;;;7.74;100.00
21111;BME280;10713;51.912;4.494;2023-02-11T05:30:53;103362.34;;;7.78;100.00
21111;BME280;10713;51.912;4.494;2023-02-11T05:33:18;103368.53;;;7.81;100.00
21111;BME280;10713;51.912;4.494;2023-02-11T05:35:43;103365.88;;;7.80;100.00
21111;BME280;10713;51.912;4.494;2023-02-11T05:38:09;103366.75;;;7.79;100.00
21111;BME280;10713;51.912;4.494;2023-02-11T05:40:34;103379.00;;;7.78;100.00
21111;BME280;10713;51.912;4.494;2023-02-11T05:43:00;103379.03;;;7.80;100.00
21111;BME280;10713;51.912;4.494;2023-02-11T05:45:25;103371.97;;;7.77;100.00
21111;BME280;10713;51.912;4.494;2023-02-11T05:47:51;103375.44;;;7.75;100.00
21111;BME280;10713;51.912;4.494;2023-02-11T05:50:16;103370.19;;;7.75;100.00
21111;BME280;10713;51.912;4.494;2023-02-11T05:52:42;103366.69;;;7.73;100.00
21111;BME280;10713;51.912;4.494;2023-02-11T05:55:07;103364.09;;;7.76;100.00
21111;BME280;10713;51.912;4.494;2023-02-11T05:57:33;103373.72;;;7.78;100.00
21111;BME280;10713;51.912;4.494;2023-02-11T05:59:58;103372.84;;;7.78;100.00
21111;BME280;10713;51.912;4.494;2023-02-11T06:02:24;103358.88;;;7.79;100.00
21111;BME280;10713;51.912;4.494;2023-02-11T06:04:49;103361.47;;;7.76;100.00
21111;BME280;10713;51.912;4.494;2023-02-11T06:07:14;103363.16;;;7.75;100.00
21111;BME280;10713;51.912;4.494;2023-02-11T06:09:40;103376.34;;;7.77;100.00
21111;BME280;10713;51.912;4.494;2023-02-11T06:12:05;103372.84;;;7.76;100.00
21111;BME280;10713;51.912;4.494;2023-02-11T06:14:32;103365.84;;;7.77;100.00
21111;BME280;10713;51.912;4.494;2023-02-11T06:16:58;103365.00;;;7.79;100.00
21111;BME280;10713;51.912;4.494;2023-02-11T06:19:23;103357.19;;;7.85;100.00
21111;BME280;10713;51.912;4.494;2023-02-11T06:21:48;103361.59;;;7.89;100.00
21111;BME280;10713;51.912;4.494;2023-02-11T06:24:14;103366.06;;;7.94;100.00
21111;BME280;10713;51.912;4.494;2023-02-11T06:26:39;103369.63;;;7.99;100.00
21111;BME280;10713;51.912;4.494;2023-02-11T06:29:05;103383.69;;;8.02;100.00
21111;BME280;10713;51.912;4.494;2023-02-11T06:31:30;103388.09;;;8.06;100.00
21111;BME280;10713;51.912;4.494;2023-02-11T06:33:55;103378.53;;;8.11;100.00
21111;BME280;10713;51.912;4.494;2023-02-11T06:36:21;103382.06;;;8.15;100.00
21111;BME280;10713;51.912;4.494;2023-02-11T06:38:47;103378.59;;;8.16;100.00
21111;BME280;10713;51.912;4.494;2023-02-11T06:41:14;103382.03;;;8.10;100.00
21111;BME280;10713;51.912;4.494;2023-02-11T06:43:40;103375.78;;;8.04;100.00
21111;BME280;10713;51.912;4.494;2023-02-11T06:46:06;103382.81;;;8.02;100.00
21111;BME280;10713;51.912;4.494;2023-02-11T06:48:32;103388.03;;;8.00;100.00
21111;BME280;10713;51.912;4.494;2023-02-11T06:51:01;103388.06;;;8.03;100.00
21111;BME280;10713;51.912;4.494;2023-02-11T06:53:27;103389.97;;;8.15;100.00
21111;BME280;10713;51.912;4.494;2023-02-11T06:55:53;103390.00;;;8.18;100.00
21111;BME280;10713;51.912;4.494;2023-02-11T06:58:18;103388.25;;;8.16;100.00
21111;BME280;10713;51.912;4.494;2023-02-11T07:00:43;103389.13;;;8.16;100.00
21111;BME280;10713;51.912;4.494;2023-02-11T07:03:09;103389.09;;;8.15;100.00
21111;BME280;10713;51.912;4.494;2023-02-11T07:05:34;103383.78;;;8.10;100.00
21111;BME280;10713;51.912;4.494;2023-02-11T07:08:01;103375.88;;;8.08;100.00
21111;BME280;10713;51.912;4.494;2023-02-11T07:10:26;103383.75;;;8.08;100.00
21111;BME280;10713;51.912;4.494;2023-02-11T07:12:51;103396.09;;;8.14;100.00
21111;BME280;10713;51.912;4.494;2023-02-11T07:15:17;103394.38;;;8.18;100.00
21111;BME280;10713;51.912;4.494;2023-02-11T07:17:42;103397.06;;;8.24;100.00
21111;BME280;10713;51.912;4.494;2023-02-11T07:20:08;103404.16;;;8.28;100.00
21111;BME280;10713;51.912;4.494;2023-02-11T07:22:36;103401.53;;;8.29;100.00
21111;BME280;10713;51.912;4.494;2023-02-11T07:25:02;103394.56;;;8.33;100.00
21111;BME280;10713;51.912;4.494;2023-02-11T07:27:28;103399.84;;;8.34;100.00
21111;BME280;10713;51.912;4.494;2023-02-11T07:29:53;103396.34;;;8.37;100.00
21111;BME280;10713;51.912;4.494;2023-02-11T07:32:19;103405.22;;;8.42;100.00
21111;BME280;10713;51.912;4.494;2023-02-11T07:34:44;103402.66;;;8.48;100.00
21111;BME280;10713;51.912;4.494;2023-02-11T07:37:12;103411.47;;;8.50;100.00
21111;BME280;10713;51.912;4.494;2023-02-11T07:39:37;103408.03;;;8.59;100.00
21111;BME280;10713;51.912;4.494;2023-02-11T07:42:02;103405.44;;;8.67;100.00
21111;BME280;10713;51.912;4.494;2023-02-11T07:44:28;103412.56;;;8.74;100.00
21111;BME280;10713;51.912;4.494;2023-02-11T07:46:53;103416.16;;;8.82;100.00
21111;BME280;10713;51.912;4.494;2023-02-11T07:49:19;103424.94;;;8.84;100.00
21111;BME280;10713;51.912;4.494;2023-02-11T07:51:44;103426.75;;;8.91;100.00
21111;BME280;10713;51.912;4.494;2023-02-11T07:54:10;103426.84;;;9.03;100.00
21111;BME280;10713;51.912;4.494;2023-02-11T07:56:36;103433.09;;;9.13;100.00
21111;BME280;10713;51.912;4.494;2023-02-11T07:59:02;103417.34;;;9.19;100.00
21111;BME280;10713;51.912;4.494;2023-02-11T08:01:28;103414.72;;;9.22;100.00
21111;BME280;10713;51.912;4.494;2023-02-11T08:03:56;103425.16;;;9.07;100.00
21111;BME280;10713;51.912;4.494;2023-02-11T08:06:24;103437.50;;;9.17;100.00
21111;BME280;10713;51.912;4.494;2023-02-11T08:08:50;103429.91;;;9.57;100.00
21111;BME280;10713;51.912;4.494;2023-02-11T08:11:21;103430.88;;;9.73;100.00
21111;BME280;10713;51.912;4.494;2023-02-11T08:13:47;103442.34;;;9.80;100.00
21111;BME280;10713;51.912;4.494;2023-02-11T08:18:52;103444.09;;;9.79;100.00
21111;BME280;10713;51.912;4.494;2023-02-11T08:21:19;103431.75;;;9.70;100.00
21111;BME280;10713;51.912;4.494;2023-02-11T08:23:45;103434.47;;;9.92;100.00
21111;BME280;10713;51.912;4.494;2023-02-11T08:26:14;103440.69;;;10.02;100.00
21111;BME280;10713;51.912;4.494;2023-02-11T08:28:41;103447.69;;;10.01;100.00
21111;BME280;10713;51.912;4.494;2023-02-11T08:31:09;103444.19;;;9.96;100.00
21111;BME280;10713;51.912;4.494;2023-02-11T08:33:36;103447.69;;;9.97;100.00
21111;BME280;10713;51.912;4.494;2023-02-11T08:36:10;103452.81;;;9.66;100.00
21111;BME280;10713;51.912;4.494;2023-02-11T08:38:36;103452.88;;;9.81;100.00
21111;BME280;10713;51.912;4.494;2023-02-11T08:41:01;103454.56;;;9.68;100.00
21111;BME280;10713;51.912;4.494;2023-02-11T08:43:27;103453.69;;;9.68;100.00
21111;BME280;10713;51.912;4.494;2023-02-11T08:45:52;103462.47;;;9.65;100.00
21111;BME280;10713;51.912;4.494;2023-02-11T08:48:17;103470.34;;;9.64;100.00
21111;BME280;10713;51.912;4.494;2023-02-11T08:50:43;103475.66;;;9.62;100.00
21111;BME280;10713;51.912;4.494;2023-02-11T08:53:08;103473.91;;;9.69;100.00
21111;BME280;10713;51.912;4.494;2023-02-11T08:55:33;103467.78;;;9.72;100.00
21111;BME280;10713;51.912;4.494;2023-02-11T08:57:59;103473.13;;;9.79;100.00
21111;BME280;10713;51.912;4.494;2023-02-11T09:00:24;103469.56;;;9.76;100.00
21111;BME280;10713;51.912;4.494;2023-02-11T09:02:49;103472.19;;;9.76;100.00
21111;BME280;10713;51.912;4.494;2023-02-11T09:05:15;103474.81;;;9.73;100.00
21111;BME280;10713;51.912;4.494;2023-02-11T09:07:40;103481.75;;;9.54;100.00
21111;BME280;10713;51.912;4.494;2023-02-11T09:10:06;103479.09;;;9.55;100.00
21111;BME280;10713;51.912;4.494;2023-02-11T09:12:32;103483.50;;;9.58;100.00
21111;BME280;10713;51.912;4.494;2023-02-11T09:14:57;103483.50;;;9.58;100.00
21111;BME280;10713;51.912;4.494;2023-02-11T09:17:23;103484.47;;;9.64;100.00
21111;BME280;10713;51.912;4.494;2023-02-11T09:19:48;103478.28;;;9.67;100.00
21111;BME280;10713;51.912;4.494;2023-02-11T09:22:13;103487.13;;;9.67;100.00
21111;BME280;10713;51.912;4.494;2023-02-11T09:24:39;103481.84;;;9.69;100.00
21111;BME280;10713;51.912;4.494;2023-02-11T09:27:04;103488.91;;;9.75;100.00
21111;BME280;10713;51.912;4.494;2023-02-11T09:29:30;103491.56;;;9.78;100.00
21111;BME280;10713;51.912;4.494;2023-02-11T09:31:55;103476.63;;;9.81;100.00
21111;BME280;10713;51.912;4.494;2023-02-11T09:34:20;103479.31;;;9.84;100.00
21111;BME280;10713;51.912;4.494;2023-02-11T09:36:46;103484.59;;;9.89;100.00
21111;BME280;10713;51.912;4.494;2023-02-11T09:39:15;103484.63;;;9.95;100.00
21111;BME280;10713;51.912;4.494;2023-02-11T09:44:37;103484.72;;;10.13;100.00
21111;BME280;10713;51.912;4.494;2023-02-11T09:47:06;103491.78;;;10.21;100.00
21111;BME280;10713;51.912;4.494;2023-02-11T09:49:49;103497.97;;;10.24;100.00
21111;BME280;10713;51.912;4.494;2023-02-11T09:54:57;103495.41;;;10.33;100.00
21111;BME280;10713;51.912;4.494;2023-02-11T09:57:27;103493.63;;;10.35;100.00
21111;BME280;10713;51.912;4.494;2023-02-11T09:59:56;103484.84;;;10.38;100.00
21111;BME280;10713;51.912;4.494;2023-02-11T10:10:37;103497.28;;;10.68;100.00
21111;BME280;10713;51.912;4.494;2023-02-11T10:13:43;103500.78;;;10.67;100.00
21111;BME280;10713;51.912;4.494;2023-02-11T10:16:27;103503.47;;;10.70;100.00
21111;BME280;10713;51.912;4.494;2023-02-11T10:22:11;103514.06;;;11.04;100.00
21111;BME280;10713;51.912;4.494;2023-02-11T10:24:40;103512.31;;;11.09;100.00
21111;BME280;10713;51.912;4.494;2023-02-11T10:27:31;103520.25;;;11.21;100.00
21111;BME280;10713;51.912;4.494;2023-02-11T10:30:11;103520.28;;;11.26;100.00
21111;BME280;10713;51.912;4.494;2023-02-11T10:32:45;103522.03;;;11.35;100.00
21111;BME280;10713;51.912;4.494;2023-02-11T10:35:16;103518.53;;;11.37;100.00
21111;BME280;10713;51.912;4.494;2023-02-11T10:37:42;103529.09;;;11.40;100.00
21111;BME280;10713;51.912;4.494;2023-02-11T10:40:13;103532.63;;;11.45;100.00
21111;BME280;10713;51.912;4.494;2023-02-11T10:42:40;103528.22;;;11.47;100.00
21111;BME280;10713;51.912;4.494;2023-02-11T10:45:16;103524.69;;;11.48;100.00
21111;BME280;10713;51.912;4.494;2023-02-11T10:47:43;103537.03;;;11.43;100.00
21111;BME280;10713;51.912;4.494;2023-02-11T10:50:38;103537.91;;;11.45;100.00
21111;BME280;10713;51.912;4.494;2023-02-11T10:53:17;103538.81;;;11.43;100.00
21111;BME280;10713;51.912;4.494;2023-02-11T10:55:53;103549.38;;;11.43;100.00
21111;BME280;10713;51.912;4.494;2023-02-11T10:58:44;103544.97;;;11.45;100.00
21111;BME280;10713;51.912;4.494;2023-02-11T11:01:09;103552.91;;;11.45;100.00
21111;BME280;10713;51.912;4.494;2023-02-11T11:03:37;103562.63;;;11.50;100.00
21111;BME280;10713;51.912;4.494;2023-02-11T11:06:08;103557.31;;;11.58;100.00
21111;BME280;10713;51.912;4.494;2023-02-11T11:11:14;103563.47;;;11.77;100.00
21111;BME280;10713;51.912;4.494;2023-02-11T11:14:00;103570.53;;;11.73;100.00
21111;BME280;10713;51.912;4.494;2023-02-11T11:16:34;103564.38;;;11.62;100.00
21111;BME280;10713;51.912;4.494;2023-02-11T11:21:46;103561.72;;;11.67;100.00
21111;BME280;10713;51.912;4.494;2023-02-11T11:26:51;103561.72;;;11.71;100.00
21111;BME280;10713;51.912;4.494;2023-02-11T11:31:51;103569.63;;;11.73;100.00
21111;BME280;10713;51.912;4.494;2023-02-11T11:34:26;103560.81;;;11.76;100.00
21111;BME280;10713;51.912;4.494;2023-02-11T11:36:54;103560.81;;;11.76;100.00
21111;BME280;10713;51.912;4.494;2023-02-11T11:39:23;103556.44;;;11.79;100.00
21111;BME280;10713;51.912;4.494;2023-02-11T11:41:53;103549.34;;;11.84;100.00
21111;BME280;10713;51.912;4.494;2023-02-11T11:44:36;103561.75;;;11.85;100.00
21111;BME280;10713;51.912;4.494;2023-02-11T11:47:25;103566.13;;;11.92;100.00
21111;BME280;10713;51.912;4.494;2023-02-11T11:52:45;103557.31;;;12.00;100.00
21111;BME280;10713;51.912;4.494;2023-02-11T11:55:30;103552.88;;;11.99;100.00
21111;BME280;10713;51.912;4.494;2023-02-11T11:57:57;103542.28;;;12.03;100.00
21111;BME280;10713;51.912;4.494;2023-02-11T12:00:53;103542.28;;;12.06;100.00
21111;BME280;10713;51.912;4.494;2023-02-11T12:09:22;103557.28;;;12.07;100.00
21111;BME280;10713;51.912;4.494;2023-02-11T12:28:25;103558.19;;;12.00;100.00
21111;BME280;10713;51.912;4.494;2023-02-11T12:45:16;103555.56;;;11.89;100.00
21111;BME280;10713;51.912;4.494;2023-02-11T12:48:09;103554.66;;;11.97;100.00
21111;BME280;10713;51.912;4.494;2023-02-11T12:51:02;103551.13;;;12.01;100.00
21111;BME280;10713;51.912;4.494;2023-02-11T12:56:39;103559.00;;;12.21;100.00
21111;BME280;10713;51.912;4.494;2023-02-11T12:59:28;103560.78;;;12.28;100.00
21111;BME280;10713;51.912;4.494;2023-02-11T13:01:58;103555.44;;;12.35;100.00
21111;BME280;10713;51.912;4.494;2023-02-11T13:04:36;103549.25;;;12.38;100.00
21111;BME280;10713;51.912;4.494;2023-02-11T13:07:11;103549.22;;;12.44;100.00
21111;BME280;10713;51.912;4.494;2023-02-11T13:09:47;103545.69;;;12.47;100.00
21111;BME280;10713;51.912;4.494;2023-02-11T13:12:15;103543.00;;;12.50;100.00
21111;BME280;10713;51.912;4.494;2023-02-11T13:15:03;103550.94;;;12.56;100.00
21111;BME280;10713;51.912;4.494;2023-02-11T13:17:55;103543.88;;;12.56;100.00
21111;BME280;10713;51.912;4.494;2023-02-11T13:20:31;103535.06;;;12.54;100.00
21111;BME280;10713;51.912;4.494;2023-02-11T13:23:18;103538.53;;;12.64;100.00
21111;BME280;10713;51.912;4.494;2023-02-11T13:25:52;103531.47;;;12.66;100.00
21111;BME280;10713;51.912;4.494;2023-02-11T13:28:34;103526.13;;;12.72;100.00
21111;BME280;10713;51.912;4.494;2023-02-11T13:31:06;103525.25;;;12.76;100.00
21111;BME280;10713;51.912;4.494;2023-02-11T13:33:35;103519.91;;;12.73;100.00
21111;BME280;10713;51.912;4.494;2023-02-11T13:38:27;103527.88;;;12.76;100.00
21111;BME280;10713;51.912;4.494;2023-02-11T13:40:58;103527.88;;;12.79;100.00
21111;BME280;10713;51.912;4.494;2023-02-11T13:43:26;103528.72;;;12.78;100.00
21111;BME280;10713;51.912;4.494;2023-02-11T13:46:01;103522.59;;;12.76;100.00
21111;BME280;10713;51.912;4.494;2023-02-11T13:48:30;103523.41;;;12.81;100.00
21111;BME280;10713;51.912;4.494;2023-02-11T13:51:02;103515.44;;;12.84;100.00
21111;BME280;10713;51.912;4.494;2023-02-11T13:53:29;103512.78;;;12.89;100.00
21111;BME280;10713;51.912;4.494;2023-02-11T13:56:11;103512.75;;;12.92;100.00
21111;BME280;10713;51.912;4.494;2023-02-11T13:58:46;103509.28;;;12.85;100.00
21111;BME280;10713;51.912;4.494;2023-02-11T14:04:31;103509.31;;;12.78;100.00
21111;BME280;10713;51.912;4.494;2023-02-11T14:07:28;103518.16;;;12.72;100.00
21111;BME280;10713;51.912;4.494;2023-02-11T14:16:13;103517.34;;;12.66;100.00
21111;BME280;10713;51.912;4.494;2023-02-11T14:21:18;103517.34;;;12.62;100.00
21111;BME280;10713;51.912;4.494;2023-02-11T14:23:44;103522.66;;;12.62;100.00
21111;BME280;10713;51.912;4.494;2023-02-11T14:28:47;103518.22;;;12.66;100.00
21111;BME280;10713;51.912;4.494;2023-02-11T14:31:39;103515.56;;;12.61;100.00
21111;BME280;10713;51.912;4.494;2023-02-11T14:34:28;103519.13;;;12.60;100.00
21111;BME280;10713;51.912;4.494;2023-02-11T14:42:56;103508.50;;;12.65;100.00
21111;BME280;10713;51.912;4.494;2023-02-11T14:45:27;103508.50;;;12.63;100.00
21111;BME280;10713;51.912;4.494;2023-02-11T14:48:03;103516.47;;;12.60;100.00
21111;BME280;10713;51.912;4.494;2023-02-11T14:50:47;103520.91;;;12.55;100.00
21111;BME280;10713;51.912;4.494;2023-02-11T14:53:16;103528.91;;;12.51;100.00
21111;BME280;10713;51.912;4.494;2023-02-11T14:55:45;103538.63;;;12.41;100.00
21111;BME280;10713;51.912;4.494;2023-02-11T14:58:17;103538.66;;;12.35;100.00
21111;BME280;10713;51.912;4.494;2023-02-11T15:01:23;103527.19;;;12.34;100.00
21111;BME280;10713;51.912;4.494;2023-02-11T15:03:54;103537.81;;;12.28;100.00
21111;BME280;10713;51.912;4.494;2023-02-11T15:06:32;103533.41;;;12.23;100.00
21111;BME280;10713;51.912;4.494;2023-02-11T15:09:04;103533.44;;;12.20;100.00